Wiseton, Canada
Current Conditions -  °F | °C
As of 9:00 PM on Friday 21 Nov 2014 (Local Time) from CYKY Reporting Station
Scattered Clouds Scattered Clouds  
Wind Chill: 22°   Ceiling: Unl
Heat Index: 28°   Visibility: 15mi
Dew Point: 27°   Wind: 6mph
Humidity: 93%   Direction: 160°SSE
Pressure: 29.52"   Gusts: NA
Location:  51.32°N, 107.65°W
Report Text: CYKY 220300Z 16005KT 15SM SCT100 M02/M03 A2952 RMK AC4 SLP026
Loading
Personal Weather Stations






























Interactive Weather Map New forecast layout! Learn more

10-Day Weather Forecast

Advertisements
Track Severe Weather on mobile